sensor_id;sensor_type;location;lat;lon;timestamp;pressure;altitude;pressure_sealevel;temperature;humidity
23241;BME280;11789;53.482;9.862;2023-11-19T00:01:48;100946.59;;;3.97;100.00
23241;BME280;11789;53.482;9.862;2023-11-19T00:04:14;100946.63;;;3.98;100.00
23241;BME280;11789;53.482;9.862;2023-11-19T00:06:39;100939.81;;;3.99;100.00
23241;BME280;11789;53.482;9.862;2023-11-19T00:09:05;100931.38;;;4.01;100.00
23241;BME280;11789;53.482;9.862;2023-11-19T00:11:30;100930.59;;;4.04;100.00
23241;BME280;11789;53.482;9.862;2023-11-19T00:13:56;100916.84;;;4.00;100.00
23241;BME280;11789;53.482;9.862;2023-11-19T00:16:21;100904.16;;;4.03;100.00
23241;BME280;11789;53.482;9.862;2023-11-19T00:18:46;100899.03;;;4.03;100.00
23241;BME280;11789;53.482;9.862;2023-11-19T00:21:12;100888.78;;;4.03;100.00
23241;BME280;11789;53.482;9.862;2023-11-19T00:23:37;100882.81;;;4.03;100.00
23241;BME280;11789;53.482;9.862;2023-11-19T00:26:03;100875.16;;;4.04;100.00
23241;BME280;11789;53.482;9.862;2023-11-19T00:28:32;100880.25;;;4.03;100.00
23241;BME280;11789;53.482;9.862;2023-11-19T00:30:58;100877.69;;;4.03;100.00
23241;BME280;11789;53.482;9.862;2023-11-19T00:33:24;100855.62;;;4.06;100.00
23241;BME280;11789;53.482;9.862;2023-11-19T00:35:50;100845.47;;;4.09;100.00
23241;BME280;11789;53.482;9.862;2023-11-19T00:38:15;100853.94;;;4.07;100.00
23241;BME280;11789;53.482;9.862;2023-11-19T00:40:41;100853.06;;;4.06;100.00
23241;BME280;11789;53.482;9.862;2023-11-19T00:43:06;100842.03;;;4.09;100.00
23241;BME280;11789;53.482;9.862;2023-11-19T00:45:32;100843.81;;;4.11;100.00
23241;BME280;11789;53.482;9.862;2023-11-19T00:47:58;100833.63;;;4.13;100.00
23241;BME280;11789;53.482;9.862;2023-11-19T00:50:25;100839.56;;;4.12;100.00
23241;BME280;11789;53.482;9.862;2023-11-19T00:52:50;100848.06;;;4.11;100.00
23241;BME280;11789;53.482;9.862;2023-11-19T00:55:16;100840.47;;;4.14;100.00
23241;BME280;11789;53.482;9.862;2023-11-19T00:57:42;100825.97;;;4.14;100.00
23241;BME280;11789;53.482;9.862;2023-11-19T01:00:09;100814.03;;;4.15;100.00
23241;BME280;11789;53.482;9.862;2023-11-19T01:02:44;100798.69;;;4.15;100.00
23241;BME280;11789;53.482;9.862;2023-11-19T01:05:10;100790.16;;;4.14;100.00
23241;BME280;11789;53.482;9.862;2023-11-19T01:07:39;100780.75;;;4.13;100.00
23241;BME280;11789;53.482;9.862;2023-11-19T01:10:05;100765.38;;;4.12;100.00
23241;BME280;11789;53.482;9.862;2023-11-19T01:12:31;100752.63;;;4.15;100.00
23241;BME280;11789;53.482;9.862;2023-11-19T01:14:56;100751.84;;;4.16;100.00
23241;BME280;11789;53.482;9.862;2023-11-19T01:17:23;100741.59;;;4.16;100.00
23241;BME280;11789;53.482;9.862;2023-11-19T01:19:48;100738.19;;;4.17;100.00
23241;BME280;11789;53.482;9.862;2023-11-19T01:22:15;100716.88;;;4.16;100.00
23241;BME280;11789;53.482;9.862;2023-11-19T01:24:40;100731.41;;;4.19;100.00
23241;BME280;11789;53.482;9.862;2023-11-19T01:27:06;100720.31;;;4.19;100.00
23241;BME280;11789;53.482;9.862;2023-11-19T01:29:31;100713.59;;;4.22;100.00
23241;BME280;11789;53.482;9.862;2023-11-19T01:31:57;100712.66;;;4.20;100.00
23241;BME280;11789;53.482;9.862;2023-11-19T01:34:22;100692.25;;;4.22;100.00
23241;BME280;11789;53.482;9.862;2023-11-19T01:36:48;100699.97;;;4.25;100.00
23241;BME280;11789;53.482;9.862;2023-11-19T01:39:14;100698.25;;;4.24;100.00
23241;BME280;11789;53.482;9.862;2023-11-19T01:41:41;100682.13;;;4.26;100.00
23241;BME280;11789;53.482;9.862;2023-11-19T01:44:07;100678.75;;;4.29;100.00
23241;BME280;11789;53.482;9.862;2023-11-19T01:46:33;100685.66;;;4.31;100.00
23241;BME280;11789;53.482;9.862;2023-11-19T01:49:00;100688.22;;;4.31;100.00
23241;BME280;11789;53.482;9.862;2023-11-19T01:51:26;100676.28;;;4.33;100.00
23241;BME280;11789;53.482;9.862;2023-11-19T01:53:52;100666.94;;;4.35;100.00
23241;BME280;11789;53.482;9.862;2023-11-19T01:56:18;100665.31;;;4.39;100.00
23241;BME280;11789;53.482;9.862;2023-11-19T01:58:45;100655.06;;;4.37;100.00
23241;BME280;11789;53.482;9.862;2023-11-19T02:01:12;100643.91;;;4.35;100.00
23241;BME280;11789;53.482;9.862;2023-11-19T02:03:38;100646.53;;;4.38;100.00
23241;BME280;11789;53.482;9.862;2023-11-19T02:06:05;100631.19;;;4.38;100.00
23241;BME280;11789;53.482;9.862;2023-11-19T02:08:30;100634.63;;;4.40;100.00
23241;BME280;11789;53.482;9.862;2023-11-19T02:10:56;100628.69;;;4.41;100.00
23241;BME280;11789;53.482;9.862;2023-11-19T02:13:22;100627.00;;;4.42;100.00
23241;BME280;11789;53.482;9.862;2023-11-19T02:15:47;100632.06;;;4.40;100.00
23241;BME280;11789;53.482;9.862;2023-11-19T02:18:21;100622.75;;;4.42;100.00
23241;BME280;11789;53.482;9.862;2023-11-19T02:20:50;100610.00;;;4.46;100.00
23241;BME280;11789;53.482;9.862;2023-11-19T02:23:17;100611.75;;;4.48;100.00
23241;BME280;11789;53.482;9.862;2023-11-19T02:25:43;100610.91;;;4.48;100.00
23241;BME280;11789;53.482;9.862;2023-11-19T02:28:12;100604.00;;;4.45;100.00
23241;BME280;11789;53.482;9.862;2023-11-19T02:30:38;100587.91;;;4.51;100.00
23241;BME280;11789;53.482;9.862;2023-11-19T02:33:04;100577.75;;;4.54;100.00
23241;BME280;11789;53.482;9.862;2023-11-19T02:35:32;100593.91;;;4.51;100.00
23241;BME280;11789;53.482;9.862;2023-11-19T02:37:59;100596.47;;;4.51;100.00
23241;BME280;11789;53.482;9.862;2023-11-19T02:40:26;100575.19;;;4.54;100.00
23241;BME280;11789;53.482;9.862;2023-11-19T02:42:52;100551.47;;;4.64;100.00
23241;BME280;11789;53.482;9.862;2023-11-19T02:45:18;100543.81;;;4.65;100.00
23241;BME280;11789;53.482;9.862;2023-11-19T02:47:43;100541.31;;;4.67;100.00
23241;BME280;11789;53.482;9.862;2023-11-19T02:50:13;100537.88;;;4.66;100.00
23241;BME280;11789;53.482;9.862;2023-11-19T02:52:44;100514.00;;;4.67;100.00
23241;BME280;11789;53.482;9.862;2023-11-19T02:55:11;100498.75;;;4.75;100.00
23241;BME280;11789;53.482;9.862;2023-11-19T02:57:40;100505.66;;;4.79;100.00
23241;BME280;11789;53.482;9.862;2023-11-19T03:00:13;100511.59;;;4.77;100.00
23241;BME280;11789;53.482;9.862;2023-11-19T03:02:42;100495.34;;;4.76;100.00
23241;BME280;11789;53.482;9.862;2023-11-19T03:05:16;100488.66;;;4.84;100.00
23241;BME280;11789;53.482;9.862;2023-11-19T03:07:43;100481.91;;;4.89;100.00
23241;BME280;11789;53.482;9.862;2023-11-19T03:10:09;100488.81;;;4.93;100.00
23241;BME280;11789;53.482;9.862;2023-11-19T03:12:39;100475.22;;;4.98;100.00
23241;BME280;11789;53.482;9.862;2023-11-19T03:15:05;100491.44;;;4.98;100.00
23241;BME280;11789;53.482;9.862;2023-11-19T03:17:30;100481.16;;;4.97;100.00
23241;BME280;11789;53.482;9.862;2023-11-19T03:19:56;100480.38;;;4.99;100.00
23241;BME280;11789;53.482;9.862;2023-11-19T03:22:21;100475.31;;;5.04;100.00
23241;BME280;11789;53.482;9.862;2023-11-19T03:24:47;100474.47;;;5.05;100.00
23241;BME280;11789;53.482;9.862;2023-11-19T03:27:12;100459.09;;;5.05;100.00
23241;BME280;11789;53.482;9.862;2023-11-19T03:29:38;100453.97;;;5.03;100.00
23241;BME280;11789;53.482;9.862;2023-11-19T03:32:04;100446.28;;;5.05;100.00
23241;BME280;11789;53.482;9.862;2023-11-19T03:34:30;100441.22;;;5.09;100.00
23241;BME280;11789;53.482;9.862;2023-11-19T03:36:55;100442.16;;;5.13;100.00
23241;BME280;11789;53.482;9.862;2023-11-19T03:39:22;100446.34;;;5.09;100.00
23241;BME280;11789;53.482;9.862;2023-11-19T03:41:50;100443.78;;;5.09;100.00
23241;BME280;11789;53.482;9.862;2023-11-19T03:44:15;100437.84;;;5.12;100.00
23241;BME280;11789;53.482;9.862;2023-11-19T03:46:41;100437.88;;;5.13;100.00
23241;BME280;11789;53.482;9.862;2023-11-19T03:49:07;100427.59;;;5.12;100.00
23241;BME280;11789;53.482;9.862;2023-11-19T03:51:33;100421.66;;;5.16;100.00
23241;BME280;11789;53.482;9.862;2023-11-19T03:54:00;100426.91;;;5.22;100.00
23241;BME280;11789;53.482;9.862;2023-11-19T03:56:25;100429.50;;;5.25;100.00
23241;BME280;11789;53.482;9.862;2023-11-19T03:58:52;100437.31;;;5.34;100.00
23241;BME280;11789;53.482;9.862;2023-11-19T04:01:17;100422.03;;;5.42;100.00
23241;BME280;11789;53.482;9.862;2023-11-19T04:03:43;100424.78;;;5.56;100.00
23241;BME280;11789;53.482;9.862;2023-11-19T04:06:08;100422.31;;;5.65;100.00
23241;BME280;11789;53.482;9.862;2023-11-19T04:08:34;100426.72;;;5.75;100.00
23241;BME280;11789;53.482;9.862;2023-11-19T04:11:02;100408.78;;;5.77;100.00
23241;BME280;11789;53.482;9.862;2023-11-19T04:13:27;100414.00;;;5.86;100.00
23241;BME280;11789;53.482;9.862;2023-11-19T04:15:53;100401.28;;;5.92;100.00
23241;BME280;11789;53.482;9.862;2023-11-19T04:18:18;100394.47;;;5.95;100.00
23241;BME280;11789;53.482;9.862;2023-11-19T04:20:44;100381.69;;;5.98;100.00
23241;BME280;11789;53.482;9.862;2023-11-19T04:23:09;100386.03;;;6.04;100.00
23241;BME280;11789;53.482;9.862;2023-11-19T04:25:35;100380.09;;;6.10;100.00
23241;BME280;11789;53.482;9.862;2023-11-19T04:28:00;100373.31;;;6.16;100.00
23241;BME280;11789;53.482;9.862;2023-11-19T04:30:27;100381.09;;;6.24;100.00
23241;BME280;11789;53.482;9.862;2023-11-19T04:32:53;100375.16;;;6.33;100.00
23241;BME280;11789;53.482;9.862;2023-11-19T04:35:18;100368.34;;;6.38;100.00
23241;BME280;11789;53.482;9.862;2023-11-19T04:37:44;100362.41;;;6.40;100.00
23241;BME280;11789;53.482;9.862;2023-11-19T04:40:10;100371.84;;;6.44;100.00
23241;BME280;11789;53.482;9.862;2023-11-19T04:42:37;100371.88;;;6.50;100.00
23241;BME280;11789;53.482;9.862;2023-11-19T04:45:06;100364.22;;;6.57;100.00
23241;BME280;11789;53.482;9.862;2023-11-19T04:47:33;100365.13;;;6.60;100.00
23241;BME280;11789;53.482;9.862;2023-11-19T04:49:58;100361.72;;;6.66;100.00
23241;BME280;11789;53.482;9.862;2023-11-19T04:52:24;100374.66;;;6.75;100.00
23241;BME280;11789;53.482;9.862;2023-11-19T04:54:49;100360.13;;;6.83;100.00
23241;BME280;11789;53.482;9.862;2023-11-19T04:57:15;100364.44;;;6.87;100.00
23241;BME280;11789;53.482;9.862;2023-11-19T04:59:40;100364.47;;;6.90;100.00
23241;BME280;11789;53.482;9.862;2023-11-19T05:02:06;100355.03;;;6.94;100.00
23241;BME280;11789;53.482;9.862;2023-11-19T05:04:33;100355.94;;;6.99;100.00
23241;BME280;11789;53.482;9.862;2023-11-19T05:06:58;100358.53;;;7.00;100.00
23241;BME280;11789;53.482;9.862;2023-11-19T05:09:24;100343.97;;;7.04;100.00
23241;BME280;11789;53.482;9.862;2023-11-19T05:11:49;100344.00;;;7.09;100.00
23241;BME280;11789;53.482;9.862;2023-11-19T05:14:15;100338.00;;;7.14;100.00
23241;BME280;11789;53.482;9.862;2023-11-19T05:16:41;100343.22;;;7.20;100.00
23241;BME280;11789;53.482;9.862;2023-11-19T05:19:08;100330.38;;;7.26;100.00
23241;BME280;11789;53.482;9.862;2023-11-19T05:21:34;100332.09;;;7.29;100.00
23241;BME280;11789;53.482;9.862;2023-11-19T05:23:59;100326.09;;;7.25;100.00
23241;BME280;11789;53.482;9.862;2023-11-19T05:26:25;100326.94;;;7.26;100.00
23241;BME280;11789;53.482;9.862;2023-11-19T05:28:51;100326.94;;;7.27;100.00
23241;BME280;11789;53.482;9.862;2023-11-19T05:31:17;100333.81;;;7.32;100.00
23241;BME280;11789;53.482;9.862;2023-11-19T05:33:43;100332.13;;;7.35;100.00
23241;BME280;11789;53.482;9.862;2023-11-19T05:36:10;100323.56;;;7.36;100.00
23241;BME280;11789;53.482;9.862;2023-11-19T05:38:36;100328.69;;;7.38;100.00
23241;BME280;11789;53.482;9.862;2023-11-19T05:41:02;100323.56;;;7.41;100.00
23241;BME280;11789;53.482;9.862;2023-11-19T05:43:28;100317.59;;;7.40;100.00
23241;BME280;11789;53.482;9.862;2023-11-19T05:45:53;100308.16;;;7.48;100.00
23241;BME280;11789;53.482;9.862;2023-11-19T05:48:19;100311.63;;;7.50;100.00
23241;BME280;11789;53.482;9.862;2023-11-19T05:50:44;100319.34;;;7.58;100.00
23241;BME280;11789;53.482;9.862;2023-11-19T05:53:10;100321.06;;;7.62;100.00
23241;BME280;11789;53.482;9.862;2023-11-19T05:55:38;100319.34;;;7.61;100.00
23241;BME280;11789;53.482;9.862;2023-11-19T05:58:11;100324.50;;;7.69;100.00
23241;BME280;11789;53.482;9.862;2023-11-19T06:00:40;100325.37;;;7.75;100.00
23241;BME280;11789;53.482;9.862;2023-11-19T06:03:07;100318.50;;;7.73;100.00
23241;BME280;11789;53.482;9.862;2023-11-19T06:05:32;100309.94;;;7.72;100.00
23241;BME280;11789;53.482;9.862;2023-11-19T06:07:58;100297.94;;;7.76;100.00
23241;BME280;11789;53.482;9.862;2023-11-19T06:10:23;100315.97;;;7.87;100.00
23241;BME280;11789;53.482;9.862;2023-11-19T06:12:57;100306.53;;;7.93;100.00
23241;BME280;11789;53.482;9.862;2023-11-19T06:15:25;100313.41;;;7.99;100.00
23241;BME280;11789;53.482;9.862;2023-11-19T06:17:51;100312.56;;;8.01;100.00
23241;BME280;11789;53.482;9.862;2023-11-19T06:20:17;100302.25;;;8.01;100.00
23241;BME280;11789;53.482;9.862;2023-11-19T06:22:43;100301.37;;;8.05;100.00
23241;BME280;11789;53.482;9.862;2023-11-19T06:25:11;100305.69;;;8.08;100.00
23241;BME280;11789;53.482;9.862;2023-11-19T06:27:37;100309.97;;;8.07;100.00
23241;BME280;11789;53.482;9.862;2023-11-19T06:30:03;100315.13;;;8.11;100.00
23241;BME280;11789;53.482;9.862;2023-11-19T06:32:28;100310.84;;;8.14;100.00
23241;BME280;11789;53.482;9.862;2023-11-19T06:34:54;100308.28;;;8.22;100.00
23241;BME280;11789;53.482;9.862;2023-11-19T06:37:20;100319.44;;;8.22;100.00
23241;BME280;11789;53.482;9.862;2023-11-19T06:39:45;100310.00;;;8.21;100.00
23241;BME280;11789;53.482;9.862;2023-11-19T06:42:10;100314.28;;;8.27;100.00
23241;BME280;11789;53.482;9.862;2023-11-19T06:44:36;100322.00;;;8.27;100.00
23241;BME280;11789;53.482;9.862;2023-11-19T06:47:01;100316.00;;;8.26;100.00
23241;BME280;11789;53.482;9.862;2023-11-19T06:49:27;100316.00;;;8.28;100.00
23241;BME280;11789;53.482;9.862;2023-11-19T06:51:52;100316.84;;;8.30;100.00
23241;BME280;11789;53.482;9.862;2023-11-19T06:54:18;100326.28;;;8.31;100.00
23241;BME280;11789;53.482;9.862;2023-11-19T06:56:43;100322.88;;;8.32;100.00
23241;BME280;11789;53.482;9.862;2023-11-19T06:59:09;100322.00;;;8.33;100.00
23241;BME280;11789;53.482;9.862;2023-11-19T07:01:35;100332.31;;;8.36;100.00
23241;BME280;11789;53.482;9.862;2023-11-19T07:04:01;100326.31;;;8.40;100.00
23241;BME280;11789;53.482;9.862;2023-11-19T07:06:33;100322.03;;;8.42;100.00
23241;BME280;11789;53.482;9.862;2023-11-19T07:08:58;100319.44;;;8.41;100.00
23241;BME280;11789;53.482;9.862;2023-11-19T07:11:24;100326.31;;;8.43;100.00
23241;BME280;11789;53.482;9.862;2023-11-19T07:13:49;100328.87;;;8.49;100.00
23241;BME280;11789;53.482;9.862;2023-11-19T07:16:15;100331.47;;;8.54;100.00
23241;BME280;11789;53.482;9.862;2023-11-19T07:18:40;100331.47;;;8.52;100.00
23241;BME280;11789;53.482;9.862;2023-11-19T07:21:09;100338.31;;;8.50;100.00
23241;BME280;11789;53.482;9.862;2023-11-19T07:23:35;100350.34;;;8.53;100.00
23241;BME280;11789;53.482;9.862;2023-11-19T07:26:04;100346.94;;;8.57;100.00
23241;BME280;11789;53.482;9.862;2023-11-19T07:28:30;100342.63;;;8.57;100.00
23241;BME280;11789;53.482;9.862;2023-11-19T07:30:55;100346.03;;;8.61;100.00
23241;BME280;11789;53.482;9.862;2023-11-19T07:33:21;100338.31;;;8.61;100.00
23241;BME280;11789;53.482;9.862;2023-11-19T07:35:47;100346.91;;;8.63;100.00
23241;BME280;11789;53.482;9.862;2023-11-19T07:38:13;100341.75;;;8.65;100.00
23241;BME280;11789;53.482;9.862;2023-11-19T07:40:38;100348.63;;;8.66;100.00
23241;BME280;11789;53.482;9.862;2023-11-19T07:43:03;100344.31;;;8.65;100.00
23241;BME280;11789;53.482;9.862;2023-11-19T07:45:29;100349.50;;;8.63;100.00
23241;BME280;11789;53.482;9.862;2023-11-19T07:47:54;100349.50;;;8.63;100.00
23241;BME280;11789;53.482;9.862;2023-11-19T07:50:20;100340.88;;;8.66;100.00
23241;BME280;11789;53.482;9.862;2023-11-19T07:52:45;100340.91;;;8.69;100.00
23241;BME280;11789;53.482;9.862;2023-11-19T07:55:11;100347.78;;;8.68;100.00
23241;BME280;11789;53.482;9.862;2023-11-19T07:57:37;100347.78;;;8.68;100.00
23241;BME280;11789;53.482;9.862;2023-11-19T08:00:03;100351.22;;;8.67;100.00
23241;BME280;11789;53.482;9.862;2023-11-19T08:02:29;100357.19;;;8.71;100.00
23241;BME280;11789;53.482;9.862;2023-11-19T08:04:54;100362.34;;;8.71;100.00
23241;BME280;11789;53.482;9.862;2023-11-19T08:07:21;100360.62;;;8.74;100.00
23241;BME280;11789;53.482;9.862;2023-11-19T08:09:47;100367.53;;;8.72;100.00
23241;BME280;11789;53.482;9.862;2023-11-19T08:12:13;100367.50;;;8.74;100.00
23241;BME280;11789;53.482;9.862;2023-11-19T08:14:41;100376.09;;;8.74;100.00
23241;BME280;11789;53.482;9.862;2023-11-19T08:17:07;100378.69;;;8.73;100.00
23241;BME280;11789;53.482;9.862;2023-11-19T08:19:32;100370.97;;;8.73;100.00
23241;BME280;11789;53.482;9.862;2023-11-19T08:21:58;100376.09;;;8.76;100.00
23241;BME280;11789;53.482;9.862;2023-11-19T08:24:23;100373.53;;;8.82;100.00
23241;BME280;11789;53.482;9.862;2023-11-19T08:26:48;100376.09;;;8.80;100.00
23241;BME280;11789;53.482;9.862;2023-11-19T08:29:14;100364.91;;;8.80;100.00
23241;BME280;11789;53.482;9.862;2023-11-19T08:31:39;100378.69;;;8.82;100.00
23241;BME280;11789;53.482;9.862;2023-11-19T08:34:06;100387.28;;;8.82;100.00
23241;BME280;11789;53.482;9.862;2023-11-19T08:36:34;100383.84;;;8.82;100.00
23241;BME280;11789;53.482;9.862;2023-11-19T08:39:00;100394.16;;;8.82;100.00
23241;BME280;11789;53.482;9.862;2023-11-19T08:41:25;100389.84;;;8.82;100.00
23241;BME280;11789;53.482;9.862;2023-11-19T08:43:50;100390.69;;;8.91;100.00
23241;BME280;11789;53.482;9.862;2023-11-19T08:46:16;100389.81;;;9.01;100.00
23241;BME280;11789;53.482;9.862;2023-11-19T08:48:42;100390.63;;;9.18;100.00
23241;BME280;11789;53.482;9.862;2023-11-19T08:51:08;100399.03;;;9.74;100.00
23241;BME280;11789;53.482;9.862;2023-11-19T08:53:34;100394.56;;;10.05;100.00
23241;BME280;11789;53.482;9.862;2023-11-19T08:55:59;100397.28;;;9.76;100.00
23241;BME280;11789;53.482;9.862;2023-11-19T08:58:25;100402.56;;;9.54;100.00
23241;BME280;11789;53.482;9.862;2023-11-19T09:00:51;100409.44;;;9.46;100.00
23241;BME280;11789;53.482;9.862;2023-11-19T09:03:16;100409.47;;;9.43;100.00
23241;BME280;11789;53.482;9.862;2023-11-19T09:05:42;100404.28;;;9.49;100.00
23241;BME280;11789;53.482;9.862;2023-11-19T09:08:07;100415.47;;;9.50;100.00
23241;BME280;11789;53.482;9.862;2023-11-19T09:10:33;100412.94;;;9.36;100.00
23241;BME280;11789;53.482;9.862;2023-11-19T09:12:59;100420.69;;;9.30;100.00
23241;BME280;11789;53.482;9.862;2023-11-19T09:15:24;100424.13;;;9.21;100.00
23241;BME280;11789;53.482;9.862;2023-11-19T09:17:49;100426.72;;;9.12;100.00
23241;BME280;11789;53.482;9.862;2023-11-19T09:20:15;100427.63;;;9.08;100.00
23241;BME280;11789;53.482;9.862;2023-11-19T09:22:43;100432.75;;;9.06;100.00
23241;BME280;11789;53.482;9.862;2023-11-19T09:25:09;100437.06;;;9.04;100.00
23241;BME280;11789;53.482;9.862;2023-11-19T09:27:35;100431.94;;;9.03;100.00
23241;BME280;11789;53.482;9.862;2023-11-19T09:30:00;100426.75;;;9.00;100.00
23241;BME280;11789;53.482;9.862;2023-11-19T09:32:26;100437.94;;;8.99;100.00
23241;BME280;11789;53.482;9.862;2023-11-19T09:34:51;100439.66;;;8.98;100.00
23241;BME280;11789;53.482;9.862;2023-11-19T09:37:17;100432.81;;;8.97;100.00
23241;BME280;11789;53.482;9.862;2023-11-19T09:39:42;100438.78;;;8.96;100.00
23241;BME280;11789;53.482;9.862;2023-11-19T09:42:12;100433.63;;;8.96;100.00
23241;BME280;11789;53.482;9.862;2023-11-19T09:44:42;100432.78;;;8.96;100.00
23241;BME280;11789;53.482;9.862;2023-11-19T09:47:09;100442.22;;;8.95;100.00
23241;BME280;11789;53.482;9.862;2023-11-19T09:49:35;100434.50;;;8.97;100.00
23241;BME280;11789;53.482;9.862;2023-11-19T09:52:01;100446.53;;;9.01;100.00
23241;BME280;11789;53.482;9.862;2023-11-19T09:54:28;100443.09;;;9.09;100.00
23241;BME280;11789;53.482;9.862;2023-11-19T09:56:55;100443.94;;;9.15;100.00
23241;BME280;11789;53.482;9.862;2023-11-19T09:59:25;100443.94;;;9.13;100.00
23241;BME280;11789;53.482;9.862;2023-11-19T10:01:50;100441.34;;;9.10;100.00
23241;BME280;11789;53.482;9.862;2023-11-19T10:04:17;100438.78;;;9.08;100.00
23241;BME280;11789;53.482;9.862;2023-11-19T10:06:44;100436.22;;;9.05;100.00
23241;BME280;11789;53.482;9.862;2023-11-19T10:09:09;100433.66;;;9.02;100.00
23241;BME280;11789;53.482;9.862;2023-11-19T10:11:36;100429.34;;;9.04;100.00
23241;BME280;11789;53.482;9.862;2023-11-19T10:14:02;100434.50;;;9.07;100.00
23241;BME280;11789;53.482;9.862;2023-11-19T10:16:28;100431.03;;;9.07;100.00
23241;BME280;11789;53.482;9.862;2023-11-19T10:18:55;100437.06;;;9.06;100.00
23241;BME280;11789;53.482;9.862;2023-11-19T10:21:21;100437.09;;;9.03;100.00
23241;BME280;11789;53.482;9.862;2023-11-19T10:23:48;100438.81;;;9.02;100.00
23241;BME280;11789;53.482;9.862;2023-11-19T10:26:15;100437.06;;;9.00;100.00
23241;BME280;11789;53.482;9.862;2023-11-19T10:28:41;100440.53;;;8.97;100.00
23241;BME280;11789;53.482;9.862;2023-11-19T10:31:15;100443.13;;;8.97;100.00
23241;BME280;11789;53.482;9.862;2023-11-19T10:33:41;100441.38;;;8.98;100.00
23241;BME280;11789;53.482;9.862;2023-11-19T10:36:07;100443.13;;;8.97;100.00
23241;BME280;11789;53.482;9.862;2023-11-19T10:38:33;100438.78;;;8.96;100.00
23241;BME280;11789;53.482;9.862;2023-11-19T10:40:58;100441.38;;;8.99;100.00
23241;BME280;11789;53.482;9.862;2023-11-19T10:43:24;100431.06;;;8.98;100.00
23241;BME280;11789;53.482;9.862;2023-11-19T10:45:51;100440.53;;;8.97;100.00
23241;BME280;11789;53.482;9.862;2023-11-19T10:48:17;100441.38;;;8.96;100.00
23241;BME280;11789;53.482;9.862;2023-11-19T10:50:44;100441.38;;;8.98;100.00
23241;BME280;11789;53.482;9.862;2023-11-19T10:53:11;100445.69;;;8.97;100.00
23241;BME280;11789;53.482;9.862;2023-11-19T10:55:41;100443.97;;;8.98;100.00
23241;BME280;11789;53.482;9.862;2023-11-19T10:58:09;100446.53;;;8.96;100.00
23241;BME280;11789;53.482;9.862;2023-11-19T11:00:39;100443.09;;;8.96;100.00
23241;BME280;11789;53.482;9.862;2023-11-19T11:03:15;100443.13;;;8.97;100.00
23241;BME280;11789;53.482;9.862;2023-11-19T11:05:42;100437.94;;;8.99;100.00
23241;BME280;11789;53.482;9.862;2023-11-19T11:08:08;100445.66;;;9.00;100.00
23241;BME280;11789;53.482;9.862;2023-11-19T11:10:39;100443.09;;;9.00;100.00
23241;BME280;11789;53.482;9.862;2023-11-19T11:13:05;100442.22;;;9.01;100.00
23241;BME280;11789;53.482;9.862;2023-11-19T11:15:31;100442.22;;;9.01;100.00
23241;BME280;11789;53.482;9.862;2023-11-19T11:18:01;100431.06;;;9.05;100.00
23241;BME280;11789;53.482;9.862;2023-11-19T11:20:31;100434.47;;;9.12;100.00
23241;BME280;11789;53.482;9.862;2023-11-19T11:29:02;100446.50;;;9.16;100.00
23241;BME280;11789;53.482;9.862;2023-11-19T11:37:23;100449.06;;;9.28;100.00
23241;BME280;11789;53.482;9.862;2023-11-19T11:39:51;100443.91;;;9.33;100.00
23241;BME280;11789;53.482;9.862;2023-11-19T11:45:05;100446.41;;;9.53;100.00
23241;BME280;11789;53.482;9.862;2023-11-19T11:50:12;100441.25;;;9.51;100.00
23241;BME280;11789;53.482;9.862;2023-11-19T11:55:51;100451.59;;;9.50;100.00
23241;BME280;11789;53.482;9.862;2023-11-19T11:58:22;100448.16;;;9.51;100.00
23241;BME280;11789;53.482;9.862;2023-11-19T12:00:51;100446.44;;;9.47;100.00
23241;BME280;11789;53.482;9.862;2023-11-19T12:03:20;100448.16;;;9.45;100.00
23241;BME280;11789;53.482;9.862;2023-11-19T12:05:50;100434.41;;;9.46;100.00
23241;BME280;11789;53.482;9.862;2023-11-19T12:08:19;100438.69;;;9.45;100.00
23241;BME280;11789;53.482;9.862;2023-11-19T12:10:53;100441.28;;;9.47;100.00
23241;BME280;11789;53.482;9.862;2023-11-19T12:13:20;100449.00;;;9.47;100.00
23241;BME280;11789;53.482;9.862;2023-11-19T12:18:30;100439.56;;;9.53;100.00
23241;BME280;11789;53.482;9.862;2023-11-19T12:21:00;100444.69;;;9.55;100.00
23241;BME280;11789;53.482;9.862;2023-11-19T12:23:29;100447.25;;;9.56;100.00
23241;BME280;11789;53.482;9.862;2023-11-19T12:25:55;100442.97;;;9.58;100.00
23241;BME280;11789;53.482;9.862;2023-11-19T12:28:21;100442.06;;;9.62;100.00
23241;BME280;11789;53.482;9.862;2023-11-19T12:30:48;100445.50;;;9.71;100.00
23241;BME280;11789;53.482;9.862;2023-11-19T12:33:14;100436.84;;;9.78;100.00
23241;BME280;11789;53.482;9.862;2023-11-19T12:35:47;100436.00;;;9.83;100.00
23241;BME280;11789;53.482;9.862;2023-11-19T12:38:23;100441.13;;;9.85;100.00
23241;BME280;11789;53.482;9.862;2023-11-19T12:41:06;100436.84;;;9.84;100.00
23241;BME280;11789;53.482;9.862;2023-11-19T12:43:32;100435.97;;;9.82;100.00
23241;BME280;11789;53.482;9.862;2023-11-19T12:45:59;100438.56;;;9.80;100.00
23241;BME280;11789;53.482;9.862;2023-11-19T12:48:25;100437.72;;;9.77;100.00
23241;BME280;11789;53.482;9.862;2023-11-19T12:50:57;100440.34;;;9.74;100.00
23241;BME280;11789;53.482;9.862;2023-11-19T12:53:25;100439.47;;;9.70;100.00
23241;BME280;11789;53.482;9.862;2023-11-19T12:55:52;100438.62;;;9.68;100.00
23241;BME280;11789;53.482;9.862;2023-11-19T12:58:34;100429.19;;;9.64;100.00
23241;BME280;11789;53.482;9.862;2023-11-19T13:01:04;100424.88;;;9.61;100.00
23241;BME280;11789;53.482;9.862;2023-11-19T13:03:32;100430.06;;;9.60;100.00
23241;BME280;11789;53.482;9.862;2023-11-19T13:06:02;100422.28;;;9.61;100.00
23241;BME280;11789;53.482;9.862;2023-11-19T13:08:39;100424.91;;;9.63;100.00
23241;BME280;11789;53.482;9.862;2023-11-19T13:11:05;100423.16;;;9.64;100.00